Terminal Aerodrome Forecast
Issued by NWS Cleveland, OH

Home | Current Version | Previous Version | Text Only | Print | Product List | Glossary Off
Versions: 1 2 3 4 5 6 7 8 9 10 11 12

000
FTUS41 KCLE 282334
TAFYNG
TAF
KYNG 282334Z 2900/2924 07007KT P6SM SCT250
     FM291200 15010KT P6SM SCT250
     FM292200 25006KT P6SM BKN250=

USA.gov is the U.S. government's official web portal to all federal, state and local government web resources and services.